sensor_id;sensor_type;location;lat;lon;timestamp;P1;durP1;ratioP1;P2;durP2;ratioP2
10005;SDS011;5042;42.626;23.382;2023-05-10T00:01:22;5.43;;;4.73;;
10005;SDS011;5042;42.626;23.382;2023-05-10T00:03:48;5.50;;;4.33;;
10005;SDS011;5042;42.626;23.382;2023-05-10T00:06:15;5.37;;;4.07;;
10005;SDS011;5042;42.626;23.382;2023-05-10T00:08:43;6.43;;;4.47;;
10005;SDS011;5042;42.626;23.382;2023-05-10T00:11:10;5.13;;;4.43;;
10005;SDS011;5042;42.626;23.382;2023-05-10T00:13:38;4.97;;;4.33;;
10005;SDS011;5042;42.626;23.382;2023-05-10T00:16:06;5.73;;;4.37;;
10005;SDS011;5042;42.626;23.382;2023-05-10T00:18:33;5.07;;;4.47;;
10005;SDS011;5042;42.626;23.382;2023-05-10T00:20:59;5.93;;;4.60;;
10005;SDS011;5042;42.626;23.382;2023-05-10T00:23:26;4.33;;;3.70;;
10005;SDS011;5042;42.626;23.382;2023-05-10T00:25:53;4.30;;;3.53;;
10005;SDS011;5042;42.626;23.382;2023-05-10T00:28:20;4.83;;;4.20;;
10005;SDS011;5042;42.626;23.382;2023-05-10T00:30:48;4.60;;;4.10;;
10005;SDS011;5042;42.626;23.382;2023-05-10T00:33:14;4.43;;;3.70;;
10005;SDS011;5042;42.626;23.382;2023-05-10T00:35:41;5.23;;;4.43;;
10005;SDS011;5042;42.626;23.382;2023-05-10T00:38:08;5.00;;;3.70;;
10005;SDS011;5042;42.626;23.382;2023-05-10T00:40:35;3.60;;;3.27;;
10005;SDS011;5042;42.626;23.382;2023-05-10T00:43:02;5.03;;;4.03;;
10005;SDS011;5042;42.626;23.382;2023-05-10T00:45:28;4.90;;;4.07;;
10005;SDS011;5042;42.626;23.382;2023-05-10T00:47:57;5.63;;;4.53;;
10005;SDS011;5042;42.626;23.382;2023-05-10T00:50:25;5.03;;;4.47;;
10005;SDS011;5042;42.626;23.382;2023-05-10T00:52:52;6.23;;;4.33;;
10005;SDS011;5042;42.626;23.382;2023-05-10T00:55:19;6.30;;;4.60;;
10005;SDS011;5042;42.626;23.382;2023-05-10T00:57:46;7.60;;;3.63;;
10005;SDS011;5042;42.626;23.382;2023-05-10T01:00:13;4.70;;;4.20;;
10005;SDS011;5042;42.626;23.382;2023-05-10T01:02:43;4.47;;;4.07;;
10005;SDS011;5042;42.626;23.382;2023-05-10T01:05:11;6.33;;;4.90;;
10005;SDS011;5042;42.626;23.382;2023-05-10T01:07:39;7.30;;;5.00;;
10005;SDS011;5042;42.626;23.382;2023-05-10T01:10:06;4.23;;;3.83;;
10005;SDS011;5042;42.626;23.382;2023-05-10T01:12:34;5.70;;;4.67;;
10005;SDS011;5042;42.626;23.382;2023-05-10T01:15:05;5.03;;;4.37;;
10005;SDS011;5042;42.626;23.382;2023-05-10T01:17:34;4.90;;;4.10;;
10005;SDS011;5042;42.626;23.382;2023-05-10T01:20:02;5.20;;;4.40;;
10005;SDS011;5042;42.626;23.382;2023-05-10T01:22:36;5.80;;;4.10;;
10005;SDS011;5042;42.626;23.382;2023-05-10T01:25:27;4.97;;;3.23;;
10005;SDS011;5042;42.626;23.382;2023-05-10T01:28:23;3.43;;;3.10;;
10005;SDS011;5042;42.626;23.382;2023-05-10T01:31:08;5.07;;;4.03;;
10005;SDS011;5042;42.626;23.382;2023-05-10T01:33:52;3.70;;;3.30;;
10005;SDS011;5042;42.626;23.382;2023-05-10T01:36:23;3.10;;;2.80;;
10005;SDS011;5042;42.626;23.382;2023-05-10T01:38:57;3.30;;;2.87;;
10005;SDS011;5042;42.626;23.382;2023-05-10T01:41:31;3.03;;;2.67;;
10005;SDS011;5042;42.626;23.382;2023-05-10T01:44:10;1.67;;;1.57;;
10005;SDS011;5042;42.626;23.382;2023-05-10T01:46:43;3.47;;;3.17;;
10005;SDS011;5042;42.626;23.382;2023-05-10T01:49:16;4.73;;;3.40;;
10005;SDS011;5042;42.626;23.382;2023-05-10T01:51:49;3.73;;;3.33;;
10005;SDS011;5042;42.626;23.382;2023-05-10T01:54:19;2.87;;;2.63;;
10005;SDS011;5042;42.626;23.382;2023-05-10T01:56:50;4.77;;;3.90;;
10005;SDS011;5042;42.626;23.382;2023-05-10T01:59:21;4.23;;;3.83;;
10005;SDS011;5042;42.626;23.382;2023-05-10T02:01:51;4.13;;;3.20;;
10005;SDS011;5042;42.626;23.382;2023-05-10T02:04:21;4.50;;;3.33;;
10005;SDS011;5042;42.626;23.382;2023-05-10T02:06:50;4.10;;;3.27;;
10005;SDS011;5042;42.626;23.382;2023-05-10T02:09:19;3.43;;;3.13;;
10005;SDS011;5042;42.626;23.382;2023-05-10T02:11:48;3.37;;;2.93;;
10005;SDS011;5042;42.626;23.382;2023-05-10T02:14:16;3.90;;;3.50;;
10005;SDS011;5042;42.626;23.382;2023-05-10T02:16:45;3.63;;;3.20;;
10005;SDS011;5042;42.626;23.382;2023-05-10T02:19:13;3.60;;;3.30;;
10005;SDS011;5042;42.626;23.382;2023-05-10T02:21:42;3.97;;;3.57;;
10005;SDS011;5042;42.626;23.382;2023-05-10T02:24:11;3.50;;;3.17;;
10005;SDS011;5042;42.626;23.382;2023-05-10T02:26:39;7.33;;;3.40;;
10005;SDS011;5042;42.626;23.382;2023-05-10T02:29:07;5.90;;;3.77;;
10005;SDS011;5042;42.626;23.382;2023-05-10T02:31:37;4.07;;;3.23;;
10005;SDS011;5042;42.626;23.382;2023-05-10T02:34:05;4.17;;;3.00;;
10005;SDS011;5042;42.626;23.382;2023-05-10T02:36:34;2.77;;;2.33;;
10005;SDS011;5042;42.626;23.382;2023-05-10T02:39:03;3.23;;;2.93;;
10005;SDS011;5042;42.626;23.382;2023-05-10T02:41:34;3.20;;;2.70;;
10005;SDS011;5042;42.626;23.382;2023-05-10T02:44:02;3.40;;;2.77;;
10005;SDS011;5042;42.626;23.382;2023-05-10T02:46:32;3.83;;;3.53;;
10005;SDS011;5042;42.626;23.382;2023-05-10T02:48:59;4.53;;;3.50;;
10005;SDS011;5042;42.626;23.382;2023-05-10T02:51:28;3.77;;;3.27;;
10005;SDS011;5042;42.626;23.382;2023-05-10T02:53:59;3.73;;;3.07;;
10005;SDS011;5042;42.626;23.382;2023-05-10T02:56:33;3.90;;;3.30;;
10005;SDS011;5042;42.626;23.382;2023-05-10T02:59:02;3.63;;;3.07;;
10005;SDS011;5042;42.626;23.382;2023-05-10T03:01:29;4.83;;;3.63;;
10005;SDS011;5042;42.626;23.382;2023-05-10T03:03:55;3.40;;;2.83;;
10005;SDS011;5042;42.626;23.382;2023-05-10T03:06:22;5.20;;;3.27;;
10005;SDS011;5042;42.626;23.382;2023-05-10T03:08:49;5.73;;;3.57;;
10005;SDS011;5042;42.626;23.382;2023-05-10T03:14:07;5.23;;;3.87;;
10005;SDS011;5042;42.626;23.382;2023-05-10T03:16:41;2.97;;;2.77;;
10005;SDS011;5042;42.626;23.382;2023-05-10T03:19:12;4.10;;;3.37;;
10005;SDS011;5042;42.626;23.382;2023-05-10T03:21:44;5.03;;;3.30;;
10005;SDS011;5042;42.626;23.382;2023-05-10T03:24:16;3.07;;;2.87;;
10005;SDS011;5042;42.626;23.382;2023-05-10T03:26:46;4.60;;;4.07;;
10005;SDS011;5042;42.626;23.382;2023-05-10T03:29:15;4.60;;;3.63;;
10005;SDS011;5042;42.626;23.382;2023-05-10T03:31:43;2.90;;;2.37;;
10005;SDS011;5042;42.626;23.382;2023-05-10T03:34:10;5.13;;;3.67;;
10005;SDS011;5042;42.626;23.382;2023-05-10T03:36:37;3.83;;;3.47;;
10005;SDS011;5042;42.626;23.382;2023-05-10T03:39:03;3.27;;;2.97;;
10005;SDS011;5042;42.626;23.382;2023-05-10T03:41:30;3.93;;;3.53;;
10005;SDS011;5042;42.626;23.382;2023-05-10T03:43:58;4.30;;;3.90;;
10005;SDS011;5042;42.626;23.382;2023-05-10T03:46:25;4.23;;;3.37;;
10005;SDS011;5042;42.626;23.382;2023-05-10T03:48:52;3.67;;;3.10;;
10005;SDS011;5042;42.626;23.382;2023-05-10T03:51:19;3.70;;;3.20;;
10005;SDS011;5042;42.626;23.382;2023-05-10T03:53:45;2.83;;;2.47;;
10005;SDS011;5042;42.626;23.382;2023-05-10T03:56:12;5.17;;;3.60;;
10005;SDS011;5042;42.626;23.382;2023-05-10T03:58:39;3.13;;;2.67;;
10005;SDS011;5042;42.626;23.382;2023-05-10T04:01:07;4.83;;;3.20;;
10005;SDS011;5042;42.626;23.382;2023-05-10T04:03:34;3.73;;;2.90;;
10005;SDS011;5042;42.626;23.382;2023-05-10T04:06:01;3.90;;;3.50;;
10005;SDS011;5042;42.626;23.382;2023-05-10T04:08:28;3.83;;;3.23;;
10005;SDS011;5042;42.626;23.382;2023-05-10T04:10:55;5.07;;;3.40;;
10005;SDS011;5042;42.626;23.382;2023-05-10T04:13:31;5.77;;;2.80;;
10005;SDS011;5042;42.626;23.382;2023-05-10T04:15:58;4.33;;;3.93;;
10005;SDS011;5042;42.626;23.382;2023-05-10T04:18:26;3.43;;;3.13;;
10005;SDS011;5042;42.626;23.382;2023-05-10T04:20:53;4.50;;;3.57;;
10005;SDS011;5042;42.626;23.382;2023-05-10T04:23:19;2.67;;;2.47;;
10005;SDS011;5042;42.626;23.382;2023-05-10T04:25:46;3.17;;;2.87;;
10005;SDS011;5042;42.626;23.382;2023-05-10T04:28:13;4.17;;;3.43;;
10005;SDS011;5042;42.626;23.382;2023-05-10T04:30:40;2.07;;;1.90;;
10005;SDS011;5042;42.626;23.382;2023-05-10T04:33:06;3.33;;;3.07;;
10005;SDS011;5042;42.626;23.382;2023-05-10T04:35:35;4.70;;;2.50;;
10005;SDS011;5042;42.626;23.382;2023-05-10T04:38:02;2.50;;;2.30;;
10005;SDS011;5042;42.626;23.382;2023-05-10T04:40:29;6.03;;;4.03;;
10005;SDS011;5042;42.626;23.382;2023-05-10T04:42:55;3.90;;;3.20;;
10005;SDS011;5042;42.626;23.382;2023-05-10T04:45:22;4.03;;;3.33;;
10005;SDS011;5042;42.626;23.382;2023-05-10T04:47:49;3.57;;;3.27;;
10005;SDS011;5042;42.626;23.382;2023-05-10T04:50:16;4.23;;;3.30;;
10005;SDS011;5042;42.626;23.382;2023-05-10T04:52:44;3.37;;;2.97;;
10005;SDS011;5042;42.626;23.382;2023-05-10T04:55:11;3.87;;;3.10;;
10005;SDS011;5042;42.626;23.382;2023-05-10T04:57:38;5.73;;;3.40;;
10005;SDS011;5042;42.626;23.382;2023-05-10T05:00:06;2.80;;;2.47;;
10005;SDS011;5042;42.626;23.382;2023-05-10T05:02:34;3.83;;;3.40;;
10005;SDS011;5042;42.626;23.382;2023-05-10T05:05:01;3.50;;;3.17;;
10005;SDS011;5042;42.626;23.382;2023-05-10T05:07:27;3.27;;;2.97;;
10005;SDS011;5042;42.626;23.382;2023-05-10T05:09:57;4.47;;;3.77;;
10005;SDS011;5042;42.626;23.382;2023-05-10T05:12:23;4.40;;;3.40;;
10005;SDS011;5042;42.626;23.382;2023-05-10T05:14:50;3.10;;;2.57;;
10005;SDS011;5042;42.626;23.382;2023-05-10T05:17:17;3.93;;;3.43;;
10005;SDS011;5042;42.626;23.382;2023-05-10T05:19:43;4.57;;;3.50;;
10005;SDS011;5042;42.626;23.382;2023-05-10T05:22:10;5.20;;;4.03;;
10005;SDS011;5042;42.626;23.382;2023-05-10T05:24:37;4.57;;;3.90;;
10005;SDS011;5042;42.626;23.382;2023-05-10T05:27:05;3.53;;;3.23;;
10005;SDS011;5042;42.626;23.382;2023-05-10T05:29:32;3.03;;;2.73;;
10005;SDS011;5042;42.626;23.382;2023-05-10T05:31:59;4.80;;;3.77;;
10005;SDS011;5042;42.626;23.382;2023-05-10T05:34:26;6.73;;;3.70;;
10005;SDS011;5042;42.626;23.382;2023-05-10T05:36:53;4.43;;;3.50;;
10005;SDS011;5042;42.626;23.382;2023-05-10T05:39:20;7.70;;;4.23;;
10005;SDS011;5042;42.626;23.382;2023-05-10T05:41:47;4.37;;;3.70;;
10005;SDS011;5042;42.626;23.382;2023-05-10T05:44:15;3.87;;;3.47;;
10005;SDS011;5042;42.626;23.382;2023-05-10T05:46:42;5.87;;;4.10;;
10005;SDS011;5042;42.626;23.382;2023-05-10T05:49:08;5.70;;;4.30;;
10005;SDS011;5042;42.626;23.382;2023-05-10T05:51:35;7.20;;;3.77;;
10005;SDS011;5042;42.626;23.382;2023-05-10T05:54:02;7.13;;;4.97;;
10005;SDS011;5042;42.626;23.382;2023-05-10T05:56:29;4.37;;;3.17;;
10005;SDS011;5042;42.626;23.382;2023-05-10T05:58:56;6.20;;;4.60;;
10005;SDS011;5042;42.626;23.382;2023-05-10T06:01:24;4.93;;;3.83;;
10005;SDS011;5042;42.626;23.382;2023-05-10T06:03:51;6.23;;;4.47;;
10005;SDS011;5042;42.626;23.382;2023-05-10T06:06:18;2.67;;;2.47;;
10005;SDS011;5042;42.626;23.382;2023-05-10T06:08:44;5.43;;;4.50;;
10005;SDS011;5042;42.626;23.382;2023-05-10T06:11:11;6.50;;;4.90;;
10005;SDS011;5042;42.626;23.382;2023-05-10T06:13:38;5.70;;;3.87;;
10005;SDS011;5042;42.626;23.382;2023-05-10T06:16:05;5.40;;;4.13;;
10005;SDS011;5042;42.626;23.382;2023-05-10T06:18:33;5.87;;;4.47;;
10005;SDS011;5042;42.626;23.382;2023-05-10T06:21:00;6.30;;;4.47;;
10005;SDS011;5042;42.626;23.382;2023-05-10T06:23:27;5.53;;;3.87;;
10005;SDS011;5042;42.626;23.382;2023-05-10T06:25:53;6.33;;;4.80;;
10005;SDS011;5042;42.626;23.382;2023-05-10T06:28:20;6.77;;;4.70;;
10005;SDS011;5042;42.626;23.382;2023-05-10T06:30:47;5.20;;;4.70;;
10005;SDS011;5042;42.626;23.382;2023-05-10T06:33:14;5.60;;;4.50;;
10005;SDS011;5042;42.626;23.382;2023-05-10T06:35:43;6.57;;;4.90;;
10005;SDS011;5042;42.626;23.382;2023-05-10T06:38:09;5.97;;;4.43;;
10005;SDS011;5042;42.626;23.382;2023-05-10T06:40:36;6.10;;;4.50;;
10005;SDS011;5042;42.626;23.382;2023-05-10T06:43:07;7.67;;;4.63;;
10005;SDS011;5042;42.626;23.382;2023-05-10T06:45:33;4.87;;;3.70;;
10005;SDS011;5042;42.626;23.382;2023-05-10T06:48:00;6.67;;;4.83;;
10005;SDS011;5042;42.626;23.382;2023-05-10T06:50:27;8.00;;;5.90;;
10005;SDS011;5042;42.626;23.382;2023-05-10T06:52:55;7.33;;;5.40;;
10005;SDS011;5042;42.626;23.382;2023-05-10T06:55:22;6.60;;;5.23;;
10005;SDS011;5042;42.626;23.382;2023-05-10T06:57:48;6.90;;;5.50;;
10005;SDS011;5042;42.626;23.382;2023-05-10T07:00:16;6.10;;;4.60;;
10005;SDS011;5042;42.626;23.382;2023-05-10T07:02:43;6.17;;;4.80;;
10005;SDS011;5042;42.626;23.382;2023-05-10T07:05:10;6.13;;;4.93;;
10005;SDS011;5042;42.626;23.382;2023-05-10T07:07:36;14.73;;;9.20;;
10005;SDS011;5042;42.626;23.382;2023-05-10T07:10:05;8.67;;;5.47;;
10005;SDS011;5042;42.626;23.382;2023-05-10T07:12:33;6.17;;;5.03;;
10005;SDS011;5042;42.626;23.382;2023-05-10T07:15:00;6.03;;;4.13;;
10005;SDS011;5042;42.626;23.382;2023-05-10T07:17:26;7.10;;;4.43;;
10005;SDS011;5042;42.626;23.382;2023-05-10T07:19:53;6.40;;;4.63;;
10005;SDS011;5042;42.626;23.382;2023-05-10T07:22:20;5.37;;;4.27;;
10005;SDS011;5042;42.626;23.382;2023-05-10T07:24:47;6.57;;;4.77;;
10005;SDS011;5042;42.626;23.382;2023-05-10T07:27:15;7.03;;;4.80;;
10005;SDS011;5042;42.626;23.382;2023-05-10T07:29:42;4.23;;;3.40;;
10005;SDS011;5042;42.626;23.382;2023-05-10T07:32:08;10.27;;;5.07;;
10005;SDS011;5042;42.626;23.382;2023-05-10T07:34:35;5.57;;;4.57;;
10005;SDS011;5042;42.626;23.382;2023-05-10T07:37:02;5.37;;;3.70;;
10005;SDS011;5042;42.626;23.382;2023-05-10T07:39:29;7.03;;;4.87;;
10005;SDS011;5042;42.626;23.382;2023-05-10T07:41:56;10.37;;;5.97;;
10005;SDS011;5042;42.626;23.382;2023-05-10T07:44:24;7.47;;;5.20;;
10005;SDS011;5042;42.626;23.382;2023-05-10T07:46:51;6.70;;;4.97;;
10005;SDS011;5042;42.626;23.382;2023-05-10T07:49:18;5.93;;;4.70;;
10005;SDS011;5042;42.626;23.382;2023-05-10T07:51:45;7.13;;;5.50;;
10005;SDS011;5042;42.626;23.382;2023-05-10T07:54:11;10.10;;;5.70;;
10005;SDS011;5042;42.626;23.382;2023-05-10T07:56:38;8.20;;;5.80;;
10005;SDS011;5042;42.626;23.382;2023-05-10T07:59:09;8.83;;;5.13;;
10005;SDS011;5042;42.626;23.382;2023-05-10T08:01:37;6.63;;;4.93;;
10005;SDS011;5042;42.626;23.382;2023-05-10T08:04:04;5.87;;;5.00;;
10005;SDS011;5042;42.626;23.382;2023-05-10T08:06:31;5.93;;;4.40;;
10005;SDS011;5042;42.626;23.382;2023-05-10T08:08:58;6.43;;;4.80;;
10005;SDS011;5042;42.626;23.382;2023-05-10T08:11:24;4.83;;;3.77;;
10005;SDS011;5042;42.626;23.382;2023-05-10T08:13:52;6.93;;;5.47;;
10005;SDS011;5042;42.626;23.382;2023-05-10T08:16:20;9.03;;;5.60;;
10005;SDS011;5042;42.626;23.382;2023-05-10T08:18:48;5.40;;;4.70;;
10005;SDS011;5042;42.626;23.382;2023-05-10T08:21:15;8.40;;;5.40;;
10005;SDS011;5042;42.626;23.382;2023-05-10T08:23:42;6.70;;;5.43;;
10005;SDS011;5042;42.626;23.382;2023-05-10T08:26:09;5.87;;;4.60;;
10005;SDS011;5042;42.626;23.382;2023-05-10T08:28:36;5.17;;;4.43;;
10005;SDS011;5042;42.626;23.382;2023-05-10T08:31:03;7.13;;;5.40;;
10005;SDS011;5042;42.626;23.382;2023-05-10T08:33:30;5.77;;;4.20;;
10005;SDS011;5042;42.626;23.382;2023-05-10T08:35:58;5.93;;;4.77;;
10005;SDS011;5042;42.626;23.382;2023-05-10T08:38:25;7.93;;;6.07;;
10005;SDS011;5042;42.626;23.382;2023-05-10T08:40:52;12.77;;;5.03;;
10005;SDS011;5042;42.626;23.382;2023-05-10T08:43:21;5.83;;;4.20;;
10005;SDS011;5042;42.626;23.382;2023-05-10T08:45:52;5.67;;;4.40;;
10005;SDS011;5042;42.626;23.382;2023-05-10T08:48:20;4.13;;;3.73;;
10005;SDS011;5042;42.626;23.382;2023-05-10T08:50:49;9.43;;;5.33;;
10005;SDS011;5042;42.626;23.382;2023-05-10T08:53:21;8.80;;;6.57;;
10005;SDS011;5042;42.626;23.382;2023-05-10T08:55:51;4.47;;;4.03;;
10005;SDS011;5042;42.626;23.382;2023-05-10T08:58:19;5.53;;;4.30;;
10005;SDS011;5042;42.626;23.382;2023-05-10T09:00:46;5.13;;;4.47;;
10005;SDS011;5042;42.626;23.382;2023-05-10T09:03:15;6.67;;;4.73;;
10005;SDS011;5042;42.626;23.382;2023-05-10T09:05:42;6.87;;;5.60;;
10005;SDS011;5042;42.626;23.382;2023-05-10T09:08:10;6.57;;;4.97;;
10005;SDS011;5042;42.626;23.382;2023-05-10T09:10:39;7.83;;;5.80;;
10005;SDS011;5042;42.626;23.382;2023-05-10T09:13:08;7.33;;;6.17;;
10005;SDS011;5042;42.626;23.382;2023-05-10T09:15:36;7.00;;;6.17;;
10005;SDS011;5042;42.626;23.382;2023-05-10T09:18:03;9.43;;;6.17;;
10005;SDS011;5042;42.626;23.382;2023-05-10T09:20:30;6.70;;;5.57;;
10005;SDS011;5042;42.626;23.382;2023-05-10T09:22:57;8.07;;;5.70;;
10005;SDS011;5042;42.626;23.382;2023-05-10T09:25:23;7.60;;;6.53;;
10005;SDS011;5042;42.626;23.382;2023-05-10T09:27:52;9.30;;;6.20;;
10005;SDS011;5042;42.626;23.382;2023-05-10T09:30:23;9.87;;;6.37;;
10005;SDS011;5042;42.626;23.382;2023-05-10T09:32:50;7.83;;;6.07;;
10005;SDS011;5042;42.626;23.382;2023-05-10T09:35:18;5.70;;;4.97;;
10005;SDS011;5042;42.626;23.382;2023-05-10T09:37:46;5.53;;;5.00;;
10005;SDS011;5042;42.626;23.382;2023-05-10T09:40:14;7.17;;;6.03;;
10005;SDS011;5042;42.626;23.382;2023-05-10T09:42:42;5.97;;;5.30;;
10005;SDS011;5042;42.626;23.382;2023-05-10T09:45:20;6.53;;;5.57;;
10005;SDS011;5042;42.626;23.382;2023-05-10T09:47:48;8.00;;;5.80;;
10005;SDS011;5042;42.626;23.382;2023-05-10T09:50:14;7.37;;;5.53;;
10005;SDS011;5042;42.626;23.382;2023-05-10T09:52:48;6.73;;;4.67;;
10005;SDS011;5042;42.626;23.382;2023-05-10T09:55:17;7.50;;;5.80;;
10005;SDS011;5042;42.626;23.382;2023-05-10T09:57:45;10.57;;;6.07;;
10005;SDS011;5042;42.626;23.382;2023-05-10T10:00:15;6.33;;;4.90;;
10005;SDS011;5042;42.626;23.382;2023-05-10T10:02:46;4.63;;;3.90;;
10005;SDS011;5042;42.626;23.382;2023-05-10T10:05:14;8.33;;;5.80;;
10005;SDS011;5042;42.626;23.382;2023-05-10T10:07:41;6.17;;;4.50;;
10005;SDS011;5042;42.626;23.382;2023-05-10T10:10:08;6.97;;;5.83;;
10005;SDS011;5042;42.626;23.382;2023-05-10T10:12:38;6.07;;;5.17;;
10005;SDS011;5042;42.626;23.382;2023-05-10T10:15:07;7.53;;;5.50;;
10005;SDS011;5042;42.626;23.382;2023-05-10T10:17:35;6.63;;;5.40;;
10005;SDS011;5042;42.626;23.382;2023-05-10T10:20:05;6.17;;;5.27;;
10005;SDS011;5042;42.626;23.382;2023-05-10T10:22:33;6.37;;;5.70;;
10005;SDS011;5042;42.626;23.382;2023-05-10T10:25:00;6.43;;;5.53;;
10005;SDS011;5042;42.626;23.382;2023-05-10T10:27:28;5.80;;;5.03;;
10005;SDS011;5042;42.626;23.382;2023-05-10T10:30:04;6.43;;;5.10;;
10005;SDS011;5042;42.626;23.382;2023-05-10T10:32:44;7.80;;;4.50;;
10005;SDS011;5042;42.626;23.382;2023-05-10T10:35:28;5.77;;;4.57;;
10005;SDS011;5042;42.626;23.382;2023-05-10T10:37:57;7.73;;;5.23;;
10005;SDS011;5042;42.626;23.382;2023-05-10T10:40:27;5.63;;;4.07;;
10005;SDS011;5042;42.626;23.382;2023-05-10T10:42:54;7.63;;;5.23;;
10005;SDS011;5042;42.626;23.382;2023-05-10T10:45:22;7.43;;;4.53;;
10005;SDS011;5042;42.626;23.382;2023-05-10T10:47:53;7.37;;;4.83;;
10005;SDS011;5042;42.626;23.382;2023-05-10T10:50:44;4.73;;;4.13;;
10005;SDS011;5042;42.626;23.382;2023-05-10T10:53:11;7.07;;;4.77;;
10005;SDS011;5042;42.626;23.382;2023-05-10T10:55:44;7.83;;;4.50;;
10005;SDS011;5042;42.626;23.382;2023-05-10T10:58:12;5.03;;;4.23;;
10005;SDS011;5042;42.626;23.382;2023-05-10T11:01:08;5.00;;;4.47;;
10005;SDS011;5042;42.626;23.382;2023-05-10T11:03:40;4.70;;;4.30;;
10005;SDS011;5042;42.626;23.382;2023-05-10T11:06:29;5.13;;;4.57;;
10005;SDS011;5042;42.626;23.382;2023-05-10T11:08:58;5.23;;;4.50;;
10005;SDS011;5042;42.626;23.382;2023-05-10T11:11:26;4.73;;;4.20;;
10005;SDS011;5042;42.626;23.382;2023-05-10T11:13:53;2.97;;;2.77;;
10005;SDS011;5042;42.626;23.382;2023-05-10T11:16:28;5.67;;;5.03;;
10005;SDS011;5042;42.626;23.382;2023-05-10T11:19:09;5.30;;;3.97;;
10005;SDS011;5042;42.626;23.382;2023-05-10T11:21:45;6.30;;;4.97;;
10005;SDS011;5042;42.626;23.382;2023-05-10T11:24:13;7.10;;;4.17;;
10005;SDS011;5042;42.626;23.382;2023-05-10T11:26:41;4.97;;;4.10;;
10005;SDS011;5042;42.626;23.382;2023-05-10T11:29:08;5.27;;;4.47;;
10005;SDS011;5042;42.626;23.382;2023-05-10T11:31:35;4.80;;;4.37;;
10005;SDS011;5042;42.626;23.382;2023-05-10T11:34:08;4.93;;;4.43;;
10005;SDS011;5042;42.626;23.382;2023-05-10T11:36:37;5.20;;;4.70;;
10005;SDS011;5042;42.626;23.382;2023-05-10T11:39:05;7.23;;;5.30;;
10005;SDS011;5042;42.626;23.382;2023-05-10T11:41:32;5.70;;;5.20;;
10005;SDS011;5042;42.626;23.382;2023-05-10T11:43:59;5.70;;;4.97;;
10005;SDS011;5042;42.626;23.382;2023-05-10T11:46:26;5.00;;;4.53;;
10005;SDS011;5042;42.626;23.382;2023-05-10T11:48:55;5.33;;;4.83;;
10005;SDS011;5042;42.626;23.382;2023-05-10T11:51:25;5.60;;;4.70;;
10005;SDS011;5042;42.626;23.382;2023-05-10T11:53:52;4.77;;;4.30;;
10005;SDS011;5042;42.626;23.382;2023-05-10T11:56:23;5.57;;;4.73;;
10005;SDS011;5042;42.626;23.382;2023-05-10T11:58:55;5.47;;;4.70;;
10005;SDS011;5042;42.626;23.382;2023-05-10T12:01:22;4.63;;;3.67;;
10005;SDS011;5042;42.626;23.382;2023-05-10T12:03:50;5.83;;;4.47;;
10005;SDS011;5042;42.626;23.382;2023-05-10T12:06:18;4.67;;;4.17;;
10005;SDS011;5042;42.626;23.382;2023-05-10T12:08:50;5.53;;;4.47;;
10005;SDS011;5042;42.626;23.382;2023-05-10T12:11:18;5.70;;;4.43;;
10005;SDS011;5042;42.626;23.382;2023-05-10T12:13:48;6.77;;;5.00;;
10005;SDS011;5042;42.626;23.382;2023-05-10T12:16:19;6.60;;;4.93;;
10005;SDS011;5042;42.626;23.382;2023-05-10T12:18:47;5.50;;;4.87;;
10005;SDS011;5042;42.626;23.382;2023-05-10T12:21:16;7.67;;;4.37;;
10005;SDS011;5042;42.626;23.382;2023-05-10T12:23:43;5.70;;;4.90;;
10005;SDS011;5042;42.626;23.382;2023-05-10T12:26:12;6.47;;;4.37;;
10005;SDS011;5042;42.626;23.382;2023-05-10T12:28:38;6.13;;;5.53;;
10005;SDS011;5042;42.626;23.382;2023-05-10T12:31:07;5.97;;;3.20;;
10005;SDS011;5042;42.626;23.382;2023-05-10T12:33:37;7.77;;;4.50;;
10005;SDS011;5042;42.626;23.382;2023-05-10T12:36:06;5.73;;;4.60;;
10005;SDS011;5042;42.626;23.382;2023-05-10T12:38:34;6.63;;;5.23;;
10005;SDS011;5042;42.626;23.382;2023-05-10T12:41:04;4.60;;;4.07;;
10005;SDS011;5042;42.626;23.382;2023-05-10T12:43:32;3.80;;;2.87;;
10005;SDS011;5042;42.626;23.382;2023-05-10T12:46:04;5.47;;;4.17;;
10005;SDS011;5042;42.626;23.382;2023-05-10T12:48:32;6.77;;;3.97;;
10005;SDS011;5042;42.626;23.382;2023-05-10T12:51:00;5.33;;;3.93;;
10005;SDS011;5042;42.626;23.382;2023-05-10T12:53:27;7.73;;;4.40;;
10005;SDS011;5042;42.626;23.382;2023-05-10T12:55:53;5.77;;;4.60;;
10005;SDS011;5042;42.626;23.382;2023-05-10T12:58:20;6.27;;;4.30;;
10005;SDS011;5042;42.626;23.382;2023-05-10T13:00:47;4.30;;;3.50;;
10005;SDS011;5042;42.626;23.382;2023-05-10T13:03:14;4.53;;;3.90;;
10005;SDS011;5042;42.626;23.382;2023-05-10T13:05:42;4.40;;;4.00;;
10005;SDS011;5042;42.626;23.382;2023-05-10T13:08:09;6.60;;;3.87;;
10005;SDS011;5042;42.626;23.382;2023-05-10T13:10:35;4.07;;;3.67;;
10005;SDS011;5042;42.626;23.382;2023-05-10T13:13:02;5.73;;;4.40;;
10005;SDS011;5042;42.626;23.382;2023-05-10T13:15:29;5.00;;;4.50;;
10005;SDS011;5042;42.626;23.382;2023-05-10T13:17:58;9.13;;;3.90;;
10005;SDS011;5042;42.626;23.382;2023-05-10T13:20:25;6.07;;;3.97;;
10005;SDS011;5042;42.626;23.382;2023-05-10T13:22:53;3.90;;;3.50;;
10005;SDS011;5042;42.626;23.382;2023-05-10T13:25:20;7.00;;;4.50;;
10005;SDS011;5042;42.626;23.382;2023-05-10T13:27:46;5.10;;;4.10;;
10005;SDS011;5042;42.626;23.382;2023-05-10T13:30:13;4.17;;;3.77;;
10005;SDS011;5042;42.626;23.382;2023-05-10T13:32:40;5.70;;;4.37;;
10005;SDS011;5042;42.626;23.382;2023-05-10T13:35:07;5.17;;;4.03;;
10005;SDS011;5042;42.626;23.382;2023-05-10T13:37:34;4.97;;;4.47;;
10005;SDS011;5042;42.626;23.382;2023-05-10T13:40:04;4.60;;;3.70;;
10005;SDS011;5042;42.626;23.382;2023-05-10T13:42:31;4.80;;;4.30;;
10005;SDS011;5042;42.626;23.382;2023-05-10T13:44:59;5.07;;;4.10;;
10005;SDS011;5042;42.626;23.382;2023-05-10T13:47:26;5.37;;;4.60;;
10005;SDS011;5042;42.626;23.382;2023-05-10T13:49:53;5.83;;;4.10;;
10005;SDS011;5042;42.626;23.382;2023-05-10T13:52:20;4.90;;;4.07;;
10005;SDS011;5042;42.626;23.382;2023-05-10T13:54:47;5.30;;;4.80;;
10005;SDS011;5042;42.626;23.382;2023-05-10T13:57:15;8.07;;;4.90;;
10005;SDS011;5042;42.626;23.382;2023-05-10T13:59:41;5.37;;;4.53;;
10005;SDS011;5042;42.626;23.382;2023-05-10T14:02:08;4.17;;;3.77;;
10005;SDS011;5042;42.626;23.382;2023-05-10T14:04:35;5.73;;;3.93;;
10005;SDS011;5042;42.626;23.382;2023-05-10T14:07:02;7.17;;;4.53;;
10005;SDS011;5042;42.626;23.382;2023-05-10T14:09:29;5.60;;;4.50;;
10005;SDS011;5042;42.626;23.382;2023-05-10T14:11:56;5.87;;;4.30;;
10005;SDS011;5042;42.626;23.382;2023-05-10T14:14:24;5.83;;;4.37;;
10005;SDS011;5042;42.626;23.382;2023-05-10T14:16:51;4.70;;;4.20;;
10005;SDS011;5042;42.626;23.382;2023-05-10T14:19:17;6.33;;;3.73;;
10005;SDS011;5042;42.626;23.382;2023-05-10T14:21:44;4.20;;;3.80;;
10005;SDS011;5042;42.626;23.382;2023-05-10T14:24:11;6.53;;;3.93;;
10005;SDS011;5042;42.626;23.382;2023-05-10T14:26:38;6.43;;;4.43;;
10005;SDS011;5042;42.626;23.382;2023-05-10T14:29:05;8.10;;;4.10;;
10005;SDS011;5042;42.626;23.382;2023-05-10T14:31:33;4.57;;;3.77;;
10005;SDS011;5042;42.626;23.382;2023-05-10T14:34:00;7.30;;;5.20;;
10005;SDS011;5042;42.626;23.382;2023-05-10T14:36:28;5.90;;;4.57;;
10005;SDS011;5042;42.626;23.382;2023-05-10T14:38:55;4.43;;;3.77;;
10005;SDS011;5042;42.626;23.382;2023-05-10T14:41:24;7.37;;;4.70;;
10005;SDS011;5042;42.626;23.382;2023-05-10T14:43:53;5.93;;;4.47;;
10005;SDS011;5042;42.626;23.382;2023-05-10T14:46:20;8.27;;;4.73;;
10005;SDS011;5042;42.626;23.382;2023-05-10T14:48:48;6.90;;;4.57;;
10005;SDS011;5042;42.626;23.382;2023-05-10T14:51:15;6.30;;;4.83;;
10005;SDS011;5042;42.626;23.382;2023-05-10T14:53:42;6.80;;;4.53;;
10005;SDS011;5042;42.626;23.382;2023-05-10T14:56:08;5.27;;;4.43;;
10005;SDS011;5042;42.626;23.382;2023-05-10T14:58:35;4.90;;;4.27;;